createdAt,value
2022-11-28T00:01:34.359Z,6.22
2022-11-28T00:04:01.283Z,8.00
2022-11-28T00:06:28.420Z,5.65
2022-11-28T00:08:58.605Z,6.15
2022-11-28T00:11:25.062Z,6.53
2022-11-28T00:13:51.490Z,8.00
2022-11-28T00:16:21.643Z,8.32
2022-11-28T00:18:51.962Z,7.03
2022-11-28T00:21:21.909Z,7.82
2022-11-28T00:23:48.612Z,8.55
2022-11-28T00:26:17.372Z,9.20
2022-11-28T00:28:43.830Z,8.98
2022-11-28T00:31:14.537Z,6.50
2022-11-28T00:33:41.481Z,7.70
2022-11-28T00:36:08.014Z,6.78
2022-11-28T00:38:34.447Z,6.57
2022-11-28T00:41:02.010Z,8.48
2022-11-28T00:43:28.748Z,7.80
2022-11-28T00:45:55.740Z,6.57
2022-11-28T00:48:22.205Z,8.57
2022-11-28T00:50:48.635Z,4.72
2022-11-28T00:53:15.053Z,5.32
2022-11-28T00:55:41.648Z,4.72
2022-11-28T00:58:08.322Z,3.78
2022-11-28T01:00:34.834Z,5.90
2022-11-28T01:03:01.316Z,6.72
2022-11-28T01:05:27.833Z,8.45
2022-11-28T01:07:54.462Z,4.93
2022-11-28T01:10:20.890Z,5.03
2022-11-28T01:12:47.336Z,5.68
2022-11-28T01:15:13.989Z,6.03
2022-11-28T01:17:40.453Z,5.47
2022-11-28T01:20:07.362Z,5.97
2022-11-28T01:22:34.065Z,11.02
2022-11-28T01:25:00.527Z,5.78
2022-11-28T01:27:27.012Z,6.72
2022-11-28T01:29:53.475Z,6.32
2022-11-28T01:32:19.888Z,5.57
2022-11-28T01:34:46.306Z,6.80
2022-11-28T01:37:12.802Z,5.63
2022-11-28T01:39:39.230Z,6.35
2022-11-28T01:42:05.664Z,7.28
2022-11-28T01:44:32.031Z,6.72
2022-11-28T01:46:58.569Z,8.98
2022-11-28T01:49:29.370Z,7.07
2022-11-28T01:51:58.456Z,5.80
2022-11-28T01:54:25.563Z,10.32
2022-11-28T01:56:54.964Z,7.35
2022-11-28T01:59:22.559Z,6.78
2022-11-28T02:01:48.980Z,10.15
2022-11-28T02:04:15.425Z,6.60
2022-11-28T02:06:42.303Z,8.57
2022-11-28T02:09:12.725Z,7.25
2022-11-28T02:11:57.954Z,6.10
2022-11-28T02:14:33.575Z,6.22
2022-11-28T02:16:59.936Z,7.03
2022-11-28T02:19:37.566Z,5.93
2022-11-28T02:22:06.948Z,6.80
2022-11-28T02:24:53.645Z,5.15
2022-11-28T02:27:28.577Z,5.25
2022-11-28T02:30:07.417Z,5.35
2022-11-28T02:32:42.055Z,7.15
2022-11-28T02:35:17.573Z,4.88
2022-11-28T02:37:47.978Z,9.55
2022-11-28T02:40:20.610Z,5.38
2022-11-28T02:43:11.407Z,12.00
2022-11-28T02:45:56.688Z,5.07
2022-11-28T02:48:26.177Z,5.50
2022-11-28T02:51:02.470Z,5.22
2022-11-28T02:53:30.541Z,5.38
2022-11-28T02:55:57.430Z,6.75
2022-11-28T02:58:24.149Z,6.45
2022-11-28T03:00:50.980Z,6.00
2022-11-28T03:03:23.436Z,6.50
2022-11-28T03:05:54.345Z,7.10
2022-11-28T03:08:20.915Z,5.68
2022-11-28T03:10:47.392Z,5.32
2022-11-28T03:13:29.646Z,5.82
2022-11-28T03:15:59.094Z,5.97
2022-11-28T03:18:39.726Z,9.52
2022-11-28T03:21:12.322Z,8.05
2022-11-28T03:23:43.827Z,8.25
2022-11-28T03:26:13.102Z,7.70
2022-11-28T03:28:55.407Z,8.13
2022-11-28T03:31:31.162Z,6.50
2022-11-28T03:33:59.141Z,6.05
2022-11-28T03:36:27.494Z,6.22
2022-11-28T03:39:01.684Z,6.18
2022-11-28T03:41:34.707Z,6.15
2022-11-28T03:44:02.373Z,7.38
2022-11-28T03:46:33.134Z,8.50
2022-11-28T03:49:00.794Z,7.88
2022-11-28T03:51:36.464Z,10.35
2022-11-28T03:54:07.073Z,8.85
2022-11-28T03:56:49.684Z,8.88
2022-11-28T03:59:16.051Z,7.38
2022-11-28T04:02:00.828Z,7.65
2022-11-28T04:04:33.298Z,9.88
2022-11-28T04:07:14.957Z,8.13
2022-11-28T04:09:49.408Z,7.28
2022-11-28T04:12:35.913Z,7.15
2022-11-28T04:15:06.405Z,6.50
2022-11-28T04:17:35.498Z,7.03
2022-11-28T04:20:16.504Z,8.10
2022-11-28T04:22:45.974Z,7.10
2022-11-28T04:25:13.940Z,6.80
2022-11-28T04:27:44.077Z,7.60
2022-11-28T04:30:11.195Z,6.65
2022-11-28T04:32:39.701Z,7.20
2022-11-28T04:35:16.773Z,6.60
2022-11-28T04:37:44.848Z,6.53
2022-11-28T04:40:11.919Z,8.73
2022-11-28T04:42:45.742Z,9.00
2022-11-28T04:45:17.991Z,8.65
2022-11-28T04:47:45.010Z,8.20
2022-11-28T04:50:13.447Z,8.05
2022-11-28T04:52:56.206Z,8.18
2022-11-28T04:55:29.082Z,7.68
2022-11-28T04:58:11.172Z,9.00
2022-11-28T05:00:38.353Z,6.95
2022-11-28T05:03:05.518Z,6.95
2022-11-28T05:05:32.270Z,8.32
2022-11-28T05:08:01.115Z,7.68
2022-11-28T05:10:27.636Z,8.07
2022-11-28T05:12:54.194Z,8.35
2022-11-28T05:15:20.670Z,8.30
2022-11-28T05:17:47.107Z,8.13
2022-11-28T05:20:14.026Z,7.97
2022-11-28T05:22:40.616Z,9.48
2022-11-28T05:25:07.258Z,7.95
2022-11-28T05:27:33.636Z,8.75
2022-11-28T05:30:00.085Z,8.15
2022-11-28T05:32:29.140Z,8.07
2022-11-28T05:34:55.691Z,9.55
2022-11-28T05:37:22.159Z,9.65
2022-11-28T05:39:48.579Z,8.90
2022-11-28T05:42:15.095Z,10.50
2022-11-28T05:44:41.517Z,11.00
2022-11-28T05:47:08.434Z,9.75
2022-11-28T05:49:35.140Z,10.13
2022-11-28T05:52:01.553Z,10.05
2022-11-28T05:54:28.040Z,9.32
2022-11-28T05:57:13.471Z,10.88
2022-11-28T05:59:40.034Z,10.20
2022-11-28T06:02:07.527Z,10.02
2022-11-28T06:04:34.173Z,12.00
2022-11-28T06:07:00.713Z,10.75
2022-11-28T06:09:27.250Z,10.57
2022-11-28T06:11:53.719Z,10.82
2022-11-28T06:14:20.185Z,11.63
2022-11-28T06:16:46.631Z,11.75
2022-11-28T06:19:13.500Z,11.45
2022-11-28T06:21:40.150Z,12.95
2022-11-28T06:24:06.825Z,11.95
2022-11-28T06:26:33.190Z,11.65
2022-11-28T06:28:59.569Z,16.75
2022-11-28T06:31:30.408Z,15.20
2022-11-28T06:33:57.765Z,14.50
2022-11-28T06:36:25.000Z,15.23
2022-11-28T06:38:51.611Z,16.23
2022-11-28T06:41:19.307Z,14.77
2022-11-28T06:43:45.682Z,14.80
2022-11-28T06:46:16.921Z,17.60
2022-11-28T06:48:44.119Z,17.95
2022-11-28T06:51:11.319Z,17.08
2022-11-28T06:53:37.715Z,20.88
2022-11-28T06:56:08.199Z,21.65
2022-11-28T06:58:35.174Z,22.17
2022-11-28T07:01:07.751Z,21.45
2022-11-28T07:03:34.276Z,31.98
2022-11-28T07:06:01.716Z,27.80
2022-11-28T07:08:28.195Z,29.05
2022-11-28T07:10:54.593Z,27.70
2022-11-28T07:13:21.029Z,30.38
2022-11-28T07:15:51.194Z,33.97
2022-11-28T07:18:17.713Z,32.65
2022-11-28T07:20:44.185Z,31.80
2022-11-28T07:23:10.588Z,31.90
2022-11-28T07:25:36.984Z,34.45
2022-11-28T07:28:03.441Z,31.33
2022-11-28T07:30:29.867Z,43.42
2022-11-28T07:32:56.292Z,132.45
2022-11-28T07:35:22.808Z,43.05
2022-11-28T07:37:49.224Z,41.10
2022-11-28T07:40:18.522Z,50.70
2022-11-28T07:42:44.957Z,42.13
2022-11-28T07:45:11.509Z,47.20
2022-11-28T07:47:40.535Z,49.53
2022-11-28T07:50:07.287Z,42.80
2022-11-28T07:52:33.719Z,53.00
2022-11-28T07:55:00.153Z,48.10
2022-11-28T07:57:26.583Z,44.13
2022-11-28T07:59:53.009Z,48.85
2022-11-28T08:02:19.634Z,47.05
2022-11-28T08:04:49.589Z,53.88
2022-11-28T08:07:32.579Z,50.05
2022-11-28T08:09:59.027Z,45.22
2022-11-28T08:12:25.681Z,50.92
2022-11-28T08:14:52.098Z,47.45
2022-11-28T08:17:18.533Z,47.38
2022-11-28T08:19:51.757Z,50.80
2022-11-28T08:22:18.292Z,52.90
2022-11-28T08:24:45.065Z,48.97
2022-11-28T08:27:11.826Z,49.08
2022-11-28T08:29:38.295Z,54.22
2022-11-28T08:32:04.962Z,50.80
2022-11-28T08:34:40.795Z,48.95
2022-11-28T08:37:07.277Z,45.83
2022-11-28T08:39:43.751Z,44.65
2022-11-28T08:42:24.852Z,46.45
2022-11-28T08:44:51.416Z,40.33
2022-11-28T08:47:18.016Z,39.88
2022-11-28T08:49:44.828Z,41.67
2022-11-28T08:52:11.456Z,40.60
2022-11-28T08:54:46.499Z,34.55
2022-11-28T08:57:17.791Z,34.25
2022-11-28T08:59:47.308Z,38.03
2022-11-28T09:02:19.866Z,34.03
2022-11-28T09:04:49.662Z,32.85
2022-11-28T09:07:16.238Z,34.28
2022-11-28T09:09:46.073Z,26.92
2022-11-28T09:12:12.761Z,33.75
2022-11-28T09:14:39.201Z,31.48
2022-11-28T09:17:10.008Z,31.52
2022-11-28T09:19:36.895Z,31.58
2022-11-28T09:22:13.458Z,33.15
2022-11-28T09:24:41.960Z,33.08
2022-11-28T09:27:08.613Z,36.30
2022-11-28T09:29:40.052Z,35.85
2022-11-28T09:32:11.783Z,40.55
2022-11-28T09:34:38.247Z,37.95
2022-11-28T09:37:05.206Z,41.97
2022-11-28T09:39:43.914Z,39.53
2022-11-28T09:42:23.323Z,36.90
2022-11-28T09:44:55.024Z,40.17
2022-11-28T09:47:32.393Z,40.47
2022-11-28T09:50:11.409Z,40.67
2022-11-28T09:52:40.236Z,44.13
2022-11-28T09:55:27.428Z,42.47
2022-11-28T09:57:57.210Z,45.67
2022-11-28T10:00:29.124Z,49.40
2022-11-28T10:03:14.945Z,46.05
2022-11-28T10:06:13.866Z,53.35
2022-11-28T10:08:50.680Z,61.40
2022-11-28T10:14:30.282Z,58.10
2022-11-28T10:17:23.362Z,59.88
2022-11-28T10:19:59.943Z,57.78
2022-11-28T10:22:40.526Z,55.10
2022-11-28T10:25:27.568Z,51.33
2022-11-28T10:30:47.783Z,49.92
2022-11-28T10:33:20.100Z,42.33
2022-11-28T10:35:48.785Z,40.70
2022-11-28T10:38:25.709Z,40.90
2022-11-28T10:41:20.451Z,34.92
2022-11-28T10:44:21.144Z,41.00
2022-11-28T10:46:54.666Z,37.03
2022-11-28T10:49:26.205Z,37.20
2022-11-28T10:52:02.287Z,28.80
2022-11-28T10:58:14.591Z,34.90
2022-11-28T11:00:56.182Z,39.10
2022-11-28T11:03:27.226Z,38.85
2022-11-28T11:06:22.514Z,37.53
2022-11-28T11:08:51.470Z,41.42
2022-11-28T11:11:21.694Z,43.75
2022-11-28T11:14:01.732Z,41.55
2022-11-28T11:16:56.441Z,42.00
2022-11-28T11:20:01.334Z,37.67
2022-11-28T11:22:34.224Z,40.92
2022-11-28T11:25:41.655Z,47.83
2022-11-28T11:28:31.562Z,46.58
2022-11-28T11:31:05.403Z,40.80
2022-11-28T11:33:40.857Z,49.58
2022-11-28T11:36:34.927Z,50.42
2022-11-28T11:39:21.117Z,45.70
2022-11-28T11:42:05.204Z,47.33
2022-11-28T11:44:39.534Z,44.88
2022-11-28T11:47:14.668Z,44.95
2022-11-28T11:49:53.165Z,43.30
2022-11-28T11:52:24.429Z,48.13
2022-11-28T11:55:00.893Z,35.67
2022-11-28T11:57:35.207Z,46.97
2022-11-28T12:00:19.253Z,44.97
2022-11-28T12:06:15.671Z,51.83
2022-11-28T12:11:30.849Z,41.17
2022-11-28T12:14:04.699Z,42.53
2022-11-28T12:17:32.602Z,36.72
2022-11-28T12:20:51.070Z,40.90
2022-11-28T12:23:54.027Z,41.60
2022-11-28T12:26:26.489Z,34.58
2022-11-28T12:34:28.853Z,44.47
2022-11-28T12:37:13.699Z,37.55
2022-11-28T12:39:40.424Z,38.50
2022-11-28T12:42:25.717Z,34.08
2022-11-28T12:45:01.566Z,40.15
2022-11-28T12:47:43.271Z,36.70
2022-11-28T12:50:36.223Z,36.22
2022-11-28T12:53:09.723Z,36.05
2022-11-28T12:58:08.613Z,31.00
2022-11-28T13:00:51.127Z,31.15
2022-11-28T13:03:30.005Z,32.38
2022-11-28T13:06:04.972Z,37.97
2022-11-28T13:08:47.991Z,38.70
2022-11-28T13:11:32.116Z,34.72
2022-11-28T13:14:13.174Z,40.80
2022-11-28T13:16:45.520Z,40.53
2022-11-28T13:19:12.000Z,36.42
2022-11-28T13:21:57.361Z,32.53
2022-11-28T13:24:30.038Z,41.83
2022-11-28T13:27:05.677Z,39.60
2022-11-28T13:29:50.724Z,48.38
2022-11-28T13:32:36.071Z,34.65
2022-11-28T13:35:03.243Z,42.25
2022-11-28T13:40:58.160Z,44.45
2022-11-28T13:43:28.103Z,41.88
2022-11-28T13:45:55.107Z,44.42
2022-11-28T13:51:34.754Z,45.33
2022-11-28T13:54:22.926Z,37.65
2022-11-28T13:57:11.601Z,35.72
2022-11-28T13:59:38.540Z,44.95
2022-11-28T14:02:12.982Z,35.28
2022-11-28T14:04:44.072Z,35.22
2022-11-28T14:07:20.882Z,39.55
2022-11-28T14:09:52.223Z,44.25
2022-11-28T14:12:21.928Z,31.83
2022-11-28T14:14:48.434Z,40.83
2022-11-28T14:17:27.229Z,39.72
2022-11-28T14:19:56.746Z,41.55
2022-11-28T14:22:23.282Z,37.53
2022-11-28T14:24:58.894Z,37.92
2022-11-28T14:27:27.956Z,39.90
2022-11-28T14:29:55.707Z,35.15
2022-11-28T14:33:00.611Z,38.05
2022-11-28T14:35:45.582Z,36.30
2022-11-28T14:38:35.447Z,40.00
2022-11-28T14:41:06.369Z,35.00
2022-11-28T14:43:36.185Z,40.35
2022-11-28T14:46:21.722Z,41.40
2022-11-28T14:49:08.698Z,41.83
2022-11-28T14:51:44.615Z,43.08
2022-11-28T14:54:25.711Z,45.53
2022-11-28T14:57:17.066Z,39.80
2022-11-28T14:59:43.693Z,50.40
2022-11-28T15:02:15.834Z,43.17
2022-11-28T15:04:45.848Z,43.60
2022-11-28T15:07:18.709Z,41.15
2022-11-28T15:09:49.977Z,41.65
2022-11-28T15:12:16.370Z,42.08
2022-11-28T15:14:44.524Z,44.22
2022-11-28T15:17:13.883Z,42.83
2022-11-28T15:19:59.890Z,39.20
2022-11-28T15:22:29.267Z,46.45
2022-11-28T15:25:01.865Z,46.63
2022-11-28T15:27:37.077Z,48.40
2022-11-28T15:30:32.331Z,51.08
2022-11-28T15:33:00.164Z,41.38
2022-11-28T15:35:27.178Z,42.65
2022-11-28T15:37:54.464Z,45.00
2022-11-28T15:41:15.197Z,47.03
2022-11-28T15:43:43.819Z,44.75
2022-11-28T15:46:14.825Z,41.33
2022-11-28T15:52:15.699Z,42.03
2022-11-28T15:54:42.767Z,40.58
2022-11-28T15:57:20.781Z,47.13
2022-11-28T15:59:47.595Z,45.45
2022-11-28T16:02:16.509Z,43.67
2022-11-28T16:04:44.822Z,42.22
2022-11-28T16:07:17.123Z,43.22
2022-11-28T16:10:05.060Z,43.72
2022-11-28T16:12:35.088Z,40.33
2022-11-28T16:15:06.827Z,47.63
2022-11-28T16:17:53.776Z,56.45
2022-11-28T16:20:30.234Z,40.30
2022-11-28T16:23:05.011Z,48.70
2022-11-28T16:25:32.690Z,43.75
2022-11-28T16:27:59.466Z,34.63
2022-11-28T16:30:32.761Z,40.90
2022-11-28T16:33:03.219Z,42.15
2022-11-28T16:35:31.530Z,34.63
2022-11-28T16:38:05.208Z,40.33
2022-11-28T16:40:31.798Z,45.78
2022-11-28T16:43:07.352Z,37.92
2022-11-28T16:45:40.246Z,41.33
2022-11-28T16:48:15.012Z,45.40
2022-11-28T16:51:04.461Z,43.35
2022-11-28T16:54:03.061Z,41.15
2022-11-28T16:56:39.221Z,43.05
2022-11-28T16:59:15.974Z,44.40
2022-11-28T17:01:49.246Z,41.25
2022-11-28T17:04:23.608Z,39.60
2022-11-28T17:06:51.299Z,37.30
2022-11-28T17:09:18.267Z,42.70
2022-11-28T17:11:47.721Z,51.90
2022-11-28T17:14:14.511Z,49.33
2022-11-28T17:16:49.992Z,45.50
2022-11-28T17:19:21.735Z,44.35
2022-11-28T17:21:51.002Z,44.25
2022-11-28T17:24:21.123Z,44.63
2022-11-28T17:26:47.694Z,32.97
2022-11-28T17:29:17.577Z,44.45
2022-11-28T17:31:46.847Z,46.90
2022-11-28T17:34:21.870Z,45.58
2022-11-28T17:36:51.756Z,37.22
2022-11-28T17:39:19.183Z,42.85
2022-11-28T17:41:47.034Z,44.78
2022-11-28T17:44:19.770Z,42.85
2022-11-28T17:46:46.839Z,47.83
2022-11-28T17:49:13.516Z,49.15
2022-11-28T17:51:40.368Z,49.90
2022-11-28T17:54:10.010Z,50.42
2022-11-28T17:56:38.580Z,54.92
2022-11-28T17:59:05.169Z,57.20
2022-11-28T18:01:34.736Z,57.88
2022-11-28T18:04:24.766Z,49.05
2022-11-28T18:12:03.841Z,44.67
2022-11-28T18:14:33.953Z,38.60
2022-11-28T18:17:03.170Z,51.45
2022-11-28T18:19:32.167Z,56.50
2022-11-28T18:21:58.778Z,53.92
2022-11-28T18:24:27.871Z,49.83
2022-11-28T18:26:54.270Z,54.85
2022-11-28T18:29:31.080Z,44.53
2022-11-28T18:32:00.633Z,48.05
2022-11-28T18:34:31.289Z,41.55
2022-11-28T18:37:06.516Z,40.80
2022-11-28T18:39:40.755Z,39.03
2022-11-28T18:42:13.594Z,31.90
2022-11-28T18:44:40.138Z,39.22
2022-11-28T18:47:18.675Z,40.78
2022-11-28T18:50:21.506Z,55.85
2022-11-28T18:52:48.073Z,41.15
2022-11-28T18:55:39.621Z,37.05
2022-11-28T18:58:13.062Z,44.38
2022-11-28T19:00:50.028Z,42.28
2022-11-28T19:03:23.309Z,47.85
2022-11-28T19:06:38.173Z,52.45
2022-11-28T19:09:19.881Z,52.75
2022-11-28T19:15:29.299Z,49.83
2022-11-28T19:17:57.388Z,42.22
2022-11-28T19:20:24.681Z,43.95
2022-11-28T19:23:07.533Z,50.88
2022-11-28T19:25:48.265Z,50.67
2022-11-28T19:28:55.327Z,55.35
2022-11-28T19:31:34.252Z,47.40
2022-11-28T19:34:14.293Z,50.47
2022-11-28T19:36:54.513Z,47.20
2022-11-28T19:39:25.250Z,53.30
2022-11-28T19:41:53.382Z,55.45
2022-11-28T19:44:23.004Z,55.70
2022-11-28T19:46:55.218Z,45.78
2022-11-28T19:49:26.288Z,52.17
2022-11-28T19:51:58.884Z,42.17
2022-11-28T19:54:25.722Z,42.00
2022-11-28T19:56:54.822Z,48.95
2022-11-28T19:59:24.188Z,48.03
2022-11-28T20:02:00.510Z,42.05
2022-11-28T20:04:27.359Z,43.28
2022-11-28T20:06:56.901Z,45.22
2022-11-28T20:09:30.342Z,50.30
2022-11-28T20:14:45.712Z,42.80
2022-11-28T20:18:17.394Z,40.00
2022-11-28T20:23:26.060Z,42.63
2022-11-28T20:28:49.415Z,38.22
2022-11-28T20:31:48.966Z,38.45
2022-11-28T20:34:16.675Z,36.20
2022-11-28T20:36:44.093Z,35.67
2022-11-28T20:39:12.005Z,48.15
2022-11-28T20:41:38.777Z,51.65
2022-11-28T20:44:05.581Z,38.63
2022-11-28T20:46:33.762Z,34.15
2022-11-28T20:49:01.574Z,49.83
2022-11-28T20:51:38.714Z,57.67
2022-11-28T20:54:06.259Z,43.00
2022-11-28T20:56:51.619Z,46.10
2022-11-28T20:59:26.909Z,43.25
2022-11-28T21:01:53.464Z,48.33
2022-11-28T21:04:20.092Z,38.55
2022-11-28T21:06:47.550Z,35.97
2022-11-28T21:09:14.599Z,39.10
2022-11-28T21:11:56.917Z,41.58
2022-11-28T21:14:24.807Z,40.00
2022-11-28T21:16:51.374Z,38.78
2022-11-28T21:19:17.844Z,40.78
2022-11-28T21:21:53.372Z,42.13
2022-11-28T21:24:19.913Z,39.95
2022-11-28T21:26:51.314Z,45.33
2022-11-28T21:29:20.531Z,56.30
2022-11-28T21:31:47.213Z,46.30
2022-11-28T21:34:17.768Z,45.13
2022-11-28T21:36:44.655Z,48.55
2022-11-28T21:39:21.872Z,49.30
2022-11-28T21:41:48.946Z,43.13
2022-11-28T21:44:15.503Z,58.25
2022-11-28T21:46:44.812Z,58.10
2022-11-28T21:49:11.442Z,51.53
2022-11-28T21:51:37.927Z,49.08
2022-11-28T21:54:04.563Z,46.38
2022-11-28T21:56:39.023Z,52.20
2022-11-28T21:59:05.631Z,55.55
2022-11-28T22:01:32.161Z,54.38
2022-11-28T22:04:02.412Z,57.00
2022-11-28T22:06:29.985Z,46.53
2022-11-28T22:08:56.794Z,53.35
2022-11-28T22:11:26.990Z,58.25
2022-11-28T22:13:53.448Z,54.67
2022-11-28T22:16:21.329Z,50.17
2022-11-28T22:18:48.287Z,57.20
2022-11-28T22:24:03.225Z,63.60
2022-11-28T22:26:29.697Z,61.25
2022-11-28T22:28:56.117Z,61.17
2022-11-28T22:31:22.739Z,65.65
2022-11-28T22:33:49.982Z,62.63
2022-11-28T22:36:18.301Z,57.85
2022-11-28T22:38:45.403Z,63.92
2022-11-28T22:41:13.330Z,69.63
2022-11-28T22:43:40.207Z,56.95
2022-11-28T22:46:08.083Z,68.38
2022-11-28T22:48:37.265Z,63.53
2022-11-28T22:51:08.162Z,60.95
2022-11-28T22:53:34.910Z,53.80
2022-11-28T22:56:08.855Z,68.05
2022-11-28T22:58:42.722Z,54.28
2022-11-28T23:01:10.678Z,62.97
2022-11-28T23:03:37.134Z,62.30
2022-11-28T23:06:04.582Z,64.40
2022-11-28T23:08:31.014Z,47.10
2022-11-28T23:10:57.755Z,44.42
2022-11-28T23:13:24.221Z,53.55
2022-11-28T23:15:52.926Z,60.92
2022-11-28T23:18:19.566Z,48.22
2022-11-28T23:20:46.003Z,51.92
2022-11-28T23:23:12.425Z,42.22
2022-11-28T23:25:38.772Z,37.83
2022-11-28T23:28:05.235Z,37.33
2022-11-28T23:30:31.650Z,41.63
2022-11-28T23:32:58.076Z,35.58
2022-11-28T23:35:24.505Z,44.50
2022-11-28T23:37:50.923Z,53.80
2022-11-28T23:40:17.346Z,51.58
2022-11-28T23:42:43.792Z,67.00
2022-11-28T23:45:10.469Z,36.53
2022-11-28T23:47:36.913Z,38.63
2022-11-28T23:50:03.568Z,43.35
2022-11-28T23:52:30.075Z,91.78
2022-11-28T23:54:56.494Z,46.25
2022-11-28T23:57:22.984Z,30.02
2022-11-28T23:59:49.439Z,34.53
